^^

Flughafenwetter in der weiteren Umgebung

 

EDVE - Braunschweig, Germany
Entfernung von Station: N 5 km
Aktualisierung: 22.01.2018 18:50
bedeckt
bedeckt
 Wind von WNW
Wind: WNW 13 km/h
Temperatur: 3°C
Windkühle: -1°C
Taupunkt: 3°C
Luftfeuchte: 100%
Luftdruck: 1009 hPa
Wolken: bedeckt
Sicht: 7 km
Wolken Details: stark bewölkt 152 m
bedeckt 213 m
2018/01/22 17:50 EDVE 221750Z 29007KT 7000 BKN005 OVC007 03/03 Q1009
ETHC - Celle (ger-Army), Germany
Entfernung von Station: NW 51 km
Aktualisierung: 22.01.2018 18:44
Nebel, stark bewölkt
Nebel, stark bewölkt
 Wind von WNW
Wind: WNW 7 km/h
Temperatur: 3°C
Windkühle: 1°C
Taupunkt: 2°C
Luftfeuchte: 93%
Luftdruck: 1009 hPa
Zusammenfassung: Nebel
Wolken: stark bewölkt
Sicht: 4 km
Wolken Details: stark bewölkt 122 m
stark bewölkt 244 m
stark bewölkt 488 m
2018/01/22 17:44 ETHC 221744Z 29004KT 3500 BR BKN004 BKN008 BKN016 03/02 Q1009 YLO
 
EDDV - Hannover, Germany
Entfernung von Station: WNW 62 km
Aktualisierung: 22.01.2018 18:50
leichter Regen, Nebel, bedeckt
leichter Regen, Nebel, bedeckt
 Wind von WNW
Wind: WNW 11 km/h
Temperatur: 4°C
Windkühle: 1°C
Taupunkt: 4°C
Luftfeuchte: 100%
Luftdruck: 1009 hPa
Zusammenfassung: leichter Regen, Nebel
Wolken: bedeckt
Sicht: 2 km
Wolken Details: bedeckt 122 m
2018/01/22 17:50 EDDV 221750Z 30006KT 2300 -DZ BR OVC004 04/04 Q1009 TEMPO 3500
ETHS - Fassberg (ger-Af, Germany
Entfernung von Station: NNW 75 km
Aktualisierung: 22.01.2018 18:40
Nebel, bedeckt
Nebel, bedeckt
 Wind von NW
Wind: NW 6 km/h
Temperatur: 0°C
Taupunkt: 0°C
Luftfeuchte: 100%
Luftdruck: 1009 hPa
Zusammenfassung: Nebel
Wolken: bedeckt
Sicht: 0 km
Wolken Details: bedeckt 30 m
2018/01/22 17:40 ETHS 221740Z 31003KT 0200 FG VV001 00/M00 Q1009 RED
 
EDBC - Cochstedt Arpt, Germany
Entfernung von Station: SO 76 km
Aktualisierung: 24.07.2017 17:20
nicht aktuell
leichter Regen, stark bewölkt
leichter Regen, stark bewölkt
 Wind von N
Wind: N 11 km/h
Temperatur: 16°C
Taupunkt: 16°C
Luftfeuchte: 100%
Luftdruck: 1007 hPa
Zusammenfassung: Nieselregen
Wolken: stark bewölkt
Sicht: 10 km
Wolken Details: heiter 914 m
stark bewölkt 1981 m
2017/07/24 15:20 EDBC 241520Z 35006KT 9999 -RA SCT030 BKN065 16/16 Q1007
ETNW - Wunstorf (ger-Af, Germany
Entfernung von Station: WNW 79 km
Aktualisierung: 22.01.2018 18:20
Nieselregen, Nebel, bedeckt
Nieselregen, Nebel, bedeckt
 Wind von WNW
Wind: WNW 9 km/h
Temperatur: 4°C
Windkühle: 2°C
Taupunkt: 4°C
Luftfeuchte: 100%
Luftdruck: 1009 hPa
Zusammenfassung: Nieselregen, Nebel
Wolken: bedeckt
Sicht: 2 km
Wolken Details: heiter 61 m
bedeckt 91 m
2018/01/22 17:20 ETNW 221720Z 29005KT 1600 R26/4700U DZ BR SCT002 OVC003 04/04 Q1009 YLO GRN TEMPO AMB
 
ETHB - Buckeburg(Ger-Ar, Germany
Entfernung von Station: W 101 km
Aktualisierung: 22.01.2018 18:20
leichter Regen, Regen, stark bewölkt
leichter Regen, Regen, stark bewölkt
 Wind von W
Wind: W 11 km/h
Temperatur: 5°C
Windkühle: 2°C
Taupunkt: 5°C
Luftfeuchte: 100%
Luftdruck: 1009 hPa
Zusammenfassung: leichter Regen, Regen
Wolken: stark bewölkt
Sicht: 8 km
Wolken Details: stark bewölkt 305 m
stark bewölkt 579 m
2018/01/22 17:20 ETHB 221720Z 27006KT 8000 -DZRA BKN010 BKN019 05/05 Q1009 GRN GRN TEMPO YLO
ETGQ - Rotenburg, Germany
Entfernung von Station: NW 125 km
Aktualisierung: 10.10.2016 06:20
nicht aktuell

 Wind von veränderlich
Wind: veränderlich 0 km/h
Temperatur: 4°C
Taupunkt: 3°C
Luftfeuchte: 93%
Luftdruck: 1025 hPa
2016/10/10 04:20 ETGQ 100420Z AUTO /////KT //// // ////// 04/03 Q1025 ///
 
EDVK - Kassel/Calden, Germany
Entfernung von Station: SW 128 km
Aktualisierung: 22.01.2018 18:50
stark bewölkt
stark bewölkt
 Wind von W
Wind: W 13 km/h
Temperatur: 4°C
Windkühle: 1°C
Taupunkt: 4°C
Luftfeuchte: 100%
Luftdruck: 1010 hPa
Wolken: stark bewölkt
Sicht: 9 km
Wolken Details: leicht bewölkt 183 m
stark bewölkt 396 m
2018/01/22 17:50 EDVK 221750Z 26007KT 9000 FEW006 BKN013 04/04 Q1010
EDDW - Bremen, Germany
Entfernung von Station: NW 145 km
Aktualisierung: 22.01.2018 18:50
leichter Regen, Nebel, bedeckt
leichter Regen, Nebel, bedeckt
 Wind von WNW
Wind: WNW 6 km/h
Temperatur: 4°C
Taupunkt: 4°C
Luftfeuchte: 100%
Luftdruck: 1009 hPa
Zusammenfassung: leichter Regen, Nebel
Wolken: bedeckt
Sicht: 3 km
Wolken Details: bedeckt 122 m
2018/01/22 17:50 EDDW 221750Z 30003KT 3300 -DZ BR OVC004 04/04 Q1009 TEMPO 5000
 
EDDE - Erfurt, Germany
Entfernung von Station: SSO 148 km
Aktualisierung: 22.01.2018 18:50
leichter Regen, stark bewölkt
leichter Regen, stark bewölkt
 Wind von WSW
Wind: WSW 15 km/h
Temperatur: 2°C
Windkühle: -2°C
Taupunkt: 1°C
Luftfeuchte: 93%
Luftdruck: 1009 hPa
Zusammenfassung: Nieselregen
Wolken: stark bewölkt
Sicht: 10 km
Wolken Details: stark bewölkt 610 m
stark bewölkt 853 m
2018/01/22 17:50 EDDE 221750Z 24008KT 9999 -RA BKN020 BKN028 02/01 Q1009 NOSIG
EDLP - Paderborn, Germany
Entfernung von Station: WSW 135 km
Aktualisierung: 22.01.2018 18:50
stark bewölkt
stark bewölkt
 Wind von W
Wind: W 13 km/h
Temperatur: 5°C
Windkühle: 2°C
Taupunkt: 4°C
Luftfeuchte: 93%
Luftdruck: 1010 hPa
Wolken: stark bewölkt
Sicht: 10 km
Wolken Details: stark bewölkt 396 m
2018/01/22 17:50 EDLP 221750Z 28007KT 230V320 9999 BKN013 05/04 Q1010
 
EDHI - Hamburg/Finkenwe, Germany
Entfernung von Station: NNW 148 km
Aktualisierung: 22.01.2018 18:50
Nebel, stark bewölkt
Nebel, stark bewölkt
 Wind von veränderlich
Wind: veränderlich 4 km/h
Temperatur: 1°C
Taupunkt: 1°C
Luftfeuchte: 100%
Luftdruck: 1009 hPa
Zusammenfassung: Nebel
Wolken: stark bewölkt
Sicht: 5 km
Wolken Details: stark bewölkt 152 m
2018/01/22 17:50 EDHI 221750Z VRB02KT 5000 BR BKN005 01/01 Q1009
EDDP - Leipzig/Schkeudi, Germany
Entfernung von Station: SO 149 km
Aktualisierung: 22.01.2018 18:50
leichter Regen, Schneehöhe, Nebel, stark bewölkt
leichter Regen, Schneehöhe, Nebel, stark bewölkt
 Wind von S
Wind: S 9 km/h
Temperatur: 1°C
Windkühle: -2°C
Taupunkt: 1°C
Luftfeuchte: 100%
Luftdruck: 1009 hPa
Zusammenfassung: leichter Regen, Schneehöhe, Nebel
Wolken: stark bewölkt
Sicht: 5 km
Wolken Details: leicht bewölkt 213 m
stark bewölkt 396 m
2018/01/22 17:50 EDDP 221750Z 19005KT 4800 -RASN BR FEW007 BKN013 01/01 Q1009 TEMPO 25005KT 2000 -SNRADZ BKN005
 
EDDP - Leipzig/Halle, Germany
Entfernung von Station: SO 149 km
Aktualisierung: 22.01.2018 18:50
leichter Regen, Schneehöhe, Nebel, stark bewölkt
leichter Regen, Schneehöhe, Nebel, stark bewölkt
 Wind von S
Wind: S 9 km/h
Temperatur: 1°C
Windkühle: -2°C
Taupunkt: 1°C
Luftfeuchte: 100%
Luftdruck: 1009 hPa
Zusammenfassung: leichter Regen, Schneehöhe, Nebel
Wolken: stark bewölkt
Sicht: 5 km
Wolken Details: leicht bewölkt 213 m
stark bewölkt 396 m
2018/01/22 17:50 EDDP 221750Z 19005KT 4800 -RASN BR FEW007 BKN013 01/01 Q1009 TEMPO 25005KT 2000 -SNRADZ BKN005
EDOP - Schwerin-Parchim, Germany
Entfernung von Station: NNO 153 km
Aktualisierung: 22.01.2018 18:20
wenig Schneefall, bedeckt
wenig Schneefall, bedeckt
 Wind von O
Wind: O 9 km/h
Temperatur: 0°C
Windkühle: -3°C
Taupunkt: 0°C
Luftfeuchte: 100%
Luftdruck: 1009 hPa
Zusammenfassung: leichter Schneefall
Wolken: bedeckt
Sicht: 5 km
Wolken Details: stark bewölkt 213 m
stark bewölkt 427 m
bedeckt 549 m
2018/01/22 17:20 EDOP 221720Z 10005KT 4500 -SN BKN007 BKN014 OVC018 00/M00 Q1009
 
ETND - Diepholz (ger-Af, Germany
Entfernung von Station: WNW 153 km
Aktualisierung: 22.01.2018 15:20
nicht aktuell
Nebel, stark bewölkt
Nebel, stark bewölkt
 Wind von WNW
Wind: WNW 9 km/h
Temperatur: 5°C
Windkühle: 3°C
Taupunkt: 5°C
Luftfeuchte: 100%
Luftdruck: 1006 hPa
Zusammenfassung: Nebel
Wolken: stark bewölkt
Sicht: 5 km
Wolken Details: leicht bewölkt 152 m
stark bewölkt 274 m
2018/01/22 14:20 ETND 221420Z 29005KT 5000 BR FEW005 BKN009 05/05 Q1006 GRN
EDDH - Hamburg, Germany
Entfernung von Station: NNW 154 km
Aktualisierung: 22.01.2018 18:50
Nebel, stark bewölkt
Nebel, stark bewölkt
 Wind von S
Wind: S 7 km/h
Temperatur: 2°C
Windkühle: 0°C
Taupunkt: 1°C
Luftfeuchte: 93%
Luftdruck: 1009 hPa
Zusammenfassung: Nebel
Wolken: stark bewölkt
Sicht: 5 km
Wolken Details: stark bewölkt 122 m
stark bewölkt 152 m
2018/01/22 17:50 EDDH 221750Z 17004KT 5000 BR BKN004 BKN005 02/01 Q1009 TEMPO 4000 OVC005
 
ETHF - Fritzlar (ger-Ar, Germany
Entfernung von Station: SW 156 km
Aktualisierung: 22.01.2018 18:20
stark bewölkt
stark bewölkt
 Wind von SSW
Wind: SSW 7 km/h
Temperatur: 3°C
Windkühle: 1°C
Taupunkt: 2°C
Luftfeuchte: 93%
Luftdruck: 1010 hPa
Wolken: stark bewölkt
Sicht: 10 km
Wolken Details: leicht bewölkt 457 m
stark bewölkt 1524 m
2018/01/22 17:20 ETHF 221720Z 20004KT 9999 FEW015 BKN050 03/02 Q1010 BLU BLU TEMPO GRN
EDHL - Luebeck, Germany
Entfernung von Station: N 178 km
Aktualisierung: 22.01.2018 18:20
wenig Schneefall, stark bewölkt
wenig Schneefall, stark bewölkt
 Wind von O
Wind: O 6 km/h
Temperatur: 1°C
Taupunkt: 1°C
Luftfeuchte: 100%
Luftdruck: 1009 hPa
Zusammenfassung: leichter Schneefall
Wolken: stark bewölkt
Sicht: 3 km
Wolken Details: stark bewölkt 122 m
2018/01/22 17:20 EDHL 221720Z 10003KT 070V140 3000 R07/P2000N -SN BKN004 01/01 Q1009
 
ETSH - Holzdorf, Germany
Entfernung von Station: OSO 188 km
Aktualisierung: 22.01.2018 18:39
leichter Regen, Nebel, stark bewölkt
leichter Regen, Nebel, stark bewölkt
 Wind von SO
Wind: SO 11 km/h
Temperatur: 0°C
Windkühle: -4°C
Taupunkt: -1°C
Luftfeuchte: 93%
Luftdruck: 1009 hPa
Zusammenfassung: leichter Regen, Nebel
Wolken: stark bewölkt
Sicht: 4 km
Wolken Details: heiter 274 m
stark bewölkt 427 m
2018/01/22 17:39 ETSH 221739Z 13006KT 4300 -DZ BR SCT009 BKN014 00/M01 Q1009 GRN GRN TEMPO YLO
EDDT - Berlin-Tegel, Germany
Entfernung von Station: ONO 190 km
Aktualisierung: 22.01.2018 18:50
wenig Schneefall, stark bewölkt
wenig Schneefall, stark bewölkt
 Wind von SO
Wind: SO 15 km/h
Temperatur: 1°C
Windkühle: -3°C
Taupunkt: -2°C
Luftfeuchte: 81%
Luftdruck: 1010 hPa
Zusammenfassung: leichter Schneefall
Wolken: stark bewölkt
Sicht: 8 km
Wolken Details: leicht bewölkt 457 m
stark bewölkt 610 m
stark bewölkt 1006 m
2018/01/22 17:50 EDDT 221750Z 13008KT 110V170 8000 -SN FEW015 BKN020 BKN033 01/M02 Q1010 NOSIG
 
ETNL - Rostock-Laage, Germany
Entfernung von Station: NO 217 km
Aktualisierung: 22.01.2018 18:20
wenig Schneefall, Nebel, stark bewölkt
wenig Schneefall, Nebel, stark bewölkt
 Wind von OSO
Wind: OSO 17 km/h
Temperatur: 0°C
Windkühle: -4°C
Taupunkt: -2°C
Luftfeuchte: 87%
Luftdruck: 1010 hPa
Zusammenfassung: wenig Schneefall, Nebel
Wolken: stark bewölkt
Sicht: 4 km
Wolken Details: stark bewölkt 305 m
2018/01/22 17:20 ETNL 221720Z 12009KT 3800 -SN BR BKN010 M00/M02 Q1010 GRN GRN TEMPO YLO
EDLW - Dortmund, Germany
Entfernung von Station: WSW 217 km
Aktualisierung: 22.01.2018 18:50
Klar
Klar
 Wind von W
Wind: W 17 km/h
Temperatur: 7°C
Windkühle: 4°C
Taupunkt: 4°C
Luftfeuchte: 81%
Luftdruck: 1011 hPa
Zusammenfassung: Klar
Sicht: mehr als 10 km
2018/01/22 17:50 EDLW 221750Z 27009KT 240V310 CAVOK 07/04 Q1011
 
EDDK - Koeln/Bonn, Germany
Entfernung von Station: WSW 282 km
Aktualisierung: 22.01.2018 18:50
stark bewölkt
stark bewölkt
 Wind von W
Wind: W 15 km/h
Temperatur: 8°C
Windkühle: 5°C
Taupunkt: 5°C
Luftfeuchte: 82%
Luftdruck: 1013 hPa
Wolken: stark bewölkt
Sicht: 10 km
Wolken Details: leicht bewölkt 671 m
stark bewölkt 1707 m
2018/01/22 17:50 EDDK 221750Z 28008KT 9999 FEW022 BKN056 08/05 Q1013 NOSIG
EDDL - Düsseldorf, Germany
Entfernung von Station: WSW 282 km
Aktualisierung: 22.01.2018 18:50
stark bewölkt
stark bewölkt
 Wind von W
Wind: W 13 km/h
Temperatur: 8°C
Windkühle: 6°C
Taupunkt: 5°C
Luftfeuchte: 82%
Luftdruck: 1013 hPa
Wolken: stark bewölkt
Sicht: 10 km
Wolken Details: leicht bewölkt 549 m
stark bewölkt 1646 m
2018/01/22 17:50 EDDL 221750Z 28007KT 9999 FEW018 BKN054 08/05 Q1013 NOSIG
 
EDDF - Frankfurt Main, Germany
Entfernung von Station: SSW 285 km
Aktualisierung: 22.01.2018 18:50
stark bewölkt
stark bewölkt
 Wind von SW
Wind: SW 9 km/h
Temperatur: 4°C
Windkühle: 2°C
Taupunkt: 3°C
Luftfeuchte: 93%
Luftdruck: 1013 hPa
Wolken: stark bewölkt
Sicht: 10 km
Wolken Details: leicht bewölkt 853 m
stark bewölkt 1402 m
2018/01/22 17:50 EDDF 221750Z 23005KT 9999 FEW028 BKN046 04/03 Q1013 R88/2///95 NOSIG
EDDS - Stuttgart, Germany
Entfernung von Station: SSW 413 km
Aktualisierung: 22.01.2018 18:50
leichter Regen, stark bewölkt
leichter Regen, stark bewölkt
 Wind von WSW
Wind: WSW 6 km/h
Temperatur: 7°C
Taupunkt: 7°C
Luftfeuchte: 100%
Luftdruck: 1011 hPa
Zusammenfassung: Nieselregen
Wolken: stark bewölkt
Sicht: 10 km
Wolken Details: leicht bewölkt 122 m
heiter 975 m
stark bewölkt 1372 m
2018/01/22 17:50 EDDS 221750Z 25003KT 220V290 9999 -RA FEW004 SCT032 BKN045 07/07 Q1011 NOSIG
 
EDDR - Saarbrücken, Germany
Entfernung von Station: SW 418 km
Aktualisierung: 22.01.2018 18:50
heiter
heiter
 Wind von NW
Wind: NW 20 km/h
Temperatur: 7°C
Windkühle: 4°C
Taupunkt: 5°C
Luftfeuchte: 87%
Luftdruck: 1014 hPa
Wolken: heiter
Sicht: 10 km
Wolken Details: leicht bewölkt 305 m
heiter 914 m
2018/01/22 17:50 EDDR 221750Z 32011KT 290V360 9999 FEW010 SCT030 07/05 Q1014 NOSIG
EDDM - München, Germany
Entfernung von Station: SSO 445 km
Aktualisierung: 22.01.2018 18:50
leichter Regen, stark bewölkt
leichter Regen, stark bewölkt
 Wind von NNW
Wind: NNW 6 km/h
Temperatur: 4°C
Taupunkt: 3°C
Luftfeuchte: 93%
Luftdruck: 1010 hPa
Zusammenfassung: Nieselregen
Wolken: stark bewölkt
Sicht: 10 km
Wolken Details: leicht bewölkt 152 m
stark bewölkt 914 m
2018/01/22 17:50 EDDM 221750Z 33003KT 270V030 9999 -RA FEW005 BKN030 04/03 Q1010 R88/290095 NOSIG
 
LOWI - Innsbruck, Austria
Entfernung von Station: WSW 566 km
Aktualisierung: 22.01.2018 18:50
Regen, stark bewölkt
Regen, stark bewölkt
 Wind von veränderlich
Wind: veränderlich 2 km/h
Temperatur: 1°C
Taupunkt: 0°C
Luftfeuchte: 93%
Luftdruck: 1012 hPa
Zusammenfassung: Regen
Wolken: stark bewölkt
Sicht: 5 km
Wolken Details: leicht bewölkt 91 m
heiter 549 m
stark bewölkt 701 m
2018/01/22 17:50 LOWI 221750Z VRB01KT 5000 RA FEW003 SCT018 BKN023 01/00 Q1012 R08/19//95 TEMPO 3000
Besucherstatistik
Besucher gesamt: 908.752
Besucher heute: 1.109
Besucher gestern: 1.205
gerade online: 25
aufrufe diese Seite: 3.008
counter Statistiken